sensor_id;sensor_type;location;lat;lon;timestamp;temperature;humidity
2453;DHT22;63678;47.994;7.854;2024-01-11T00:01:56;-2.50;99.90
2453;DHT22;63678;47.994;7.854;2024-01-11T00:04:29;-2.50;99.90
2453;DHT22;63678;47.994;7.854;2024-01-11T00:07:01;-2.50;99.90
2453;DHT22;63678;47.994;7.854;2024-01-11T00:09:34;-2.50;99.90
2453;DHT22;63678;47.994;7.854;2024-01-11T00:12:06;-2.50;99.90
2453;DHT22;63678;47.994;7.854;2024-01-11T00:14:40;-2.50;99.90
2453;DHT22;63678;47.994;7.854;2024-01-11T00:17:12;-2.60;99.90
2453;DHT22;63678;47.994;7.854;2024-01-11T00:19:45;-2.60;99.90
2453;DHT22;63678;47.994;7.854;2024-01-11T00:22:17;-2.60;99.90
2453;DHT22;63678;47.994;7.854;2024-01-11T00:24:49;-2.70;99.90
2453;DHT22;63678;47.994;7.854;2024-01-11T00:27:21;-2.70;99.90
2453;DHT22;63678;47.994;7.854;2024-01-11T00:29:54;-2.60;99.90
2453;DHT22;63678;47.994;7.854;2024-01-11T00:32:26;-2.70;99.90
2453;DHT22;63678;47.994;7.854;2024-01-11T00:34:59;-2.70;99.90
2453;DHT22;63678;47.994;7.854;2024-01-11T00:37:31;-2.70;99.90
2453;DHT22;63678;47.994;7.854;2024-01-11T00:40:04;-2.70;99.90
2453;DHT22;63678;47.994;7.854;2024-01-11T00:42:37;-2.60;99.90
2453;DHT22;63678;47.994;7.854;2024-01-11T00:45:09;-2.70;99.90
2453;DHT22;63678;47.994;7.854;2024-01-11T00:47:42;-2.60;99.90
2453;DHT22;63678;47.994;7.854;2024-01-11T00:50:15;-2.70;99.90
2453;DHT22;63678;47.994;7.854;2024-01-11T00:52:47;-2.80;99.90
2453;DHT22;63678;47.994;7.854;2024-01-11T00:55:19;-2.80;99.90
2453;DHT22;63678;47.994;7.854;2024-01-11T00:57:51;-2.90;99.90
2453;DHT22;63678;47.994;7.854;2024-01-11T01:00:24;-2.90;99.90
2453;DHT22;63678;47.994;7.854;2024-01-11T01:02:57;-2.90;99.90
2453;DHT22;63678;47.994;7.854;2024-01-11T01:05:29;-2.90;99.90
2453;DHT22;63678;47.994;7.854;2024-01-11T01:08:01;-2.90;99.90
2453;DHT22;63678;47.994;7.854;2024-01-11T01:10:34;-2.90;99.90
2453;DHT22;63678;47.994;7.854;2024-01-11T01:13:06;-2.90;99.90
2453;DHT22;63678;47.994;7.854;2024-01-11T01:15:39;-2.90;99.90
2453;DHT22;63678;47.994;7.854;2024-01-11T01:18:11;-2.90;99.90
2453;DHT22;63678;47.994;7.854;2024-01-11T01:20:44;-3.00;99.90
2453;DHT22;63678;47.994;7.854;2024-01-11T01:23:17;-3.00;99.90
2453;DHT22;63678;47.994;7.854;2024-01-11T01:25:50;-3.00;99.90
2453;DHT22;63678;47.994;7.854;2024-01-11T01:28:22;-3.00;99.90
2453;DHT22;63678;47.994;7.854;2024-01-11T01:30:54;-3.00;99.90
2453;DHT22;63678;47.994;7.854;2024-01-11T01:33:27;-3.00;99.90
2453;DHT22;63678;47.994;7.854;2024-01-11T01:38:35;-3.20;99.90
2453;DHT22;63678;47.994;7.854;2024-01-11T01:41:07;-3.20;99.90
2453;DHT22;63678;47.994;7.854;2024-01-11T01:43:39;-3.20;99.90
2453;DHT22;63678;47.994;7.854;2024-01-11T01:46:17;-3.20;99.90
2453;DHT22;63678;47.994;7.854;2024-01-11T01:48:54;-3.10;99.90
2453;DHT22;63678;47.994;7.854;2024-01-11T01:51:29;-3.10;99.90
2453;DHT22;63678;47.994;7.854;2024-01-11T01:54:03;-3.10;99.90
2453;DHT22;63678;47.994;7.854;2024-01-11T01:59:09;-3.00;99.90
2453;DHT22;63678;47.994;7.854;2024-01-11T02:01:42;-3.00;99.90
2453;DHT22;63678;47.994;7.854;2024-01-11T02:04:15;-3.00;99.90
2453;DHT22;63678;47.994;7.854;2024-01-11T02:06:48;-3.00;99.90
2453;DHT22;63678;47.994;7.854;2024-01-11T02:09:22;-3.00;99.90
2453;DHT22;63678;47.994;7.854;2024-01-11T02:11:54;-3.00;99.90
2453;DHT22;63678;47.994;7.854;2024-01-11T02:14:27;-3.00;99.90
2453;DHT22;63678;47.994;7.854;2024-01-11T02:17:00;-3.00;99.90
2453;DHT22;63678;47.994;7.854;2024-01-11T02:19:34;-3.00;99.90
2453;DHT22;63678;47.994;7.854;2024-01-11T02:22:17;-3.00;99.90
2453;DHT22;63678;47.994;7.854;2024-01-11T02:24:53;-3.40;99.90
2453;DHT22;63678;47.994;7.854;2024-01-11T02:27:26;-3.30;99.90
2453;DHT22;63678;47.994;7.854;2024-01-11T02:29:58;-3.40;99.90
2453;DHT22;63678;47.994;7.854;2024-01-11T02:32:30;-3.30;99.90
2453;DHT22;63678;47.994;7.854;2024-01-11T02:35:03;-3.40;99.90
2453;DHT22;63678;47.994;7.854;2024-01-11T02:37:36;-3.40;99.90
2453;DHT22;63678;47.994;7.854;2024-01-11T02:40:10;-3.40;99.90
2453;DHT22;63678;47.994;7.854;2024-01-11T02:42:45;-3.40;99.90
2453;DHT22;63678;47.994;7.854;2024-01-11T02:45:17;-3.40;99.90
2453;DHT22;63678;47.994;7.854;2024-01-11T02:47:50;-3.30;99.90
2453;DHT22;63678;47.994;7.854;2024-01-11T02:50:23;-3.10;99.90
2453;DHT22;63678;47.994;7.854;2024-01-11T02:52:56;-3.10;99.90
2453;DHT22;63678;47.994;7.854;2024-01-11T02:55:28;-3.10;99.90
2453;DHT22;63678;47.994;7.854;2024-01-11T02:58:00;-3.20;99.90
2453;DHT22;63678;47.994;7.854;2024-01-11T03:00:32;-3.20;99.90
2453;DHT22;63678;47.994;7.854;2024-01-11T03:03:05;-3.10;99.90
2453;DHT22;63678;47.994;7.854;2024-01-11T03:05:37;-3.10;99.90
2453;DHT22;63678;47.994;7.854;2024-01-11T03:10:42;-3.10;99.90
2453;DHT22;63678;47.994;7.854;2024-01-11T03:13:15;-3.10;99.90
2453;DHT22;63678;47.994;7.854;2024-01-11T03:15:47;-3.00;99.90
2453;DHT22;63678;47.994;7.854;2024-01-11T03:20:53;-2.90;99.90
2453;DHT22;63678;47.994;7.854;2024-01-11T03:23:52;-2.90;99.90
2453;DHT22;63678;47.994;7.854;2024-01-11T03:26:25;-2.90;99.90
2453;DHT22;63678;47.994;7.854;2024-01-11T03:28:57;-2.90;99.90
2453;DHT22;63678;47.994;7.854;2024-01-11T03:31:30;-3.00;99.90
2453;DHT22;63678;47.994;7.854;2024-01-11T03:36:35;-3.00;99.90
2453;DHT22;63678;47.994;7.854;2024-01-11T03:39:07;-3.30;99.90
2453;DHT22;63678;47.994;7.854;2024-01-11T03:41:44;-3.20;99.90
2453;DHT22;63678;47.994;7.854;2024-01-11T03:44:17;-3.20;99.90
2453;DHT22;63678;47.994;7.854;2024-01-11T03:46:49;-3.10;99.90
2453;DHT22;63678;47.994;7.854;2024-01-11T03:49:22;-2.90;99.90
2453;DHT22;63678;47.994;7.854;2024-01-11T03:51:54;-2.90;99.90
2453;DHT22;63678;47.994;7.854;2024-01-11T03:54:26;-3.20;99.90
2453;DHT22;63678;47.994;7.854;2024-01-11T03:56:59;-3.20;99.90
2453;DHT22;63678;47.994;7.854;2024-01-11T03:59:32;-3.20;99.90
2453;DHT22;63678;47.994;7.854;2024-01-11T04:02:04;-3.40;99.90
2453;DHT22;63678;47.994;7.854;2024-01-11T04:04:37;-3.40;99.90
2453;DHT22;63678;47.994;7.854;2024-01-11T04:07:11;-3.50;99.90
2453;DHT22;63678;47.994;7.854;2024-01-11T04:09:44;-3.60;99.90
2453;DHT22;63678;47.994;7.854;2024-01-11T04:12:17;-3.60;99.90
2453;DHT22;63678;47.994;7.854;2024-01-11T04:14:49;-3.70;99.90
2453;DHT22;63678;47.994;7.854;2024-01-11T04:19:54;-3.60;99.90
2453;DHT22;63678;47.994;7.854;2024-01-11T04:22:28;-3.60;99.90
2453;DHT22;63678;47.994;7.854;2024-01-11T04:25:00;-3.70;99.90
2453;DHT22;63678;47.994;7.854;2024-01-11T04:27:33;-3.70;99.90
2453;DHT22;63678;47.994;7.854;2024-01-11T04:30:06;-3.80;99.90
2453;DHT22;63678;47.994;7.854;2024-01-11T04:32:39;-3.80;99.90
2453;DHT22;63678;47.994;7.854;2024-01-11T04:35:11;-3.80;99.90
2453;DHT22;63678;47.994;7.854;2024-01-11T04:37:44;-3.90;99.90
2453;DHT22;63678;47.994;7.854;2024-01-11T04:40:17;-3.90;99.90
2453;DHT22;63678;47.994;7.854;2024-01-11T04:42:49;-3.90;99.90
2453;DHT22;63678;47.994;7.854;2024-01-11T04:45:22;-4.00;99.90
2453;DHT22;63678;47.994;7.854;2024-01-11T04:47:54;-4.00;99.90
2453;DHT22;63678;47.994;7.854;2024-01-11T04:50:27;-3.90;99.90
2453;DHT22;63678;47.994;7.854;2024-01-11T04:53:00;-3.80;99.90
2453;DHT22;63678;47.994;7.854;2024-01-11T04:55:32;-3.80;99.90
2453;DHT22;63678;47.994;7.854;2024-01-11T04:58:04;-3.70;99.90
2453;DHT22;63678;47.994;7.854;2024-01-11T05:00:37;-3.70;99.90
2453;DHT22;63678;47.994;7.854;2024-01-11T05:03:09;-3.60;99.90
2453;DHT22;63678;47.994;7.854;2024-01-11T05:05:42;-3.60;99.90
2453;DHT22;63678;47.994;7.854;2024-01-11T05:08:14;-3.60;99.90
2453;DHT22;63678;47.994;7.854;2024-01-11T05:10:47;-3.50;99.90
2453;DHT22;63678;47.994;7.854;2024-01-11T05:13:19;-3.60;99.90
2453;DHT22;63678;47.994;7.854;2024-01-11T05:15:52;-3.80;99.90
2453;DHT22;63678;47.994;7.854;2024-01-11T05:18:24;-2.80;99.90
2453;DHT22;63678;47.994;7.854;2024-01-11T05:20:57;-2.80;99.90
2453;DHT22;63678;47.994;7.854;2024-01-11T05:23:32;-3.40;99.90
2453;DHT22;63678;47.994;7.854;2024-01-11T05:26:05;-3.60;99.90
2453;DHT22;63678;47.994;7.854;2024-01-11T05:28:38;-3.70;99.90
2453;DHT22;63678;47.994;7.854;2024-01-11T05:31:12;-3.60;99.90
2453;DHT22;63678;47.994;7.854;2024-01-11T05:33:45;-3.60;99.90
2453;DHT22;63678;47.994;7.854;2024-01-11T05:36:19;-3.60;99.90
2453;DHT22;63678;47.994;7.854;2024-01-11T05:38:51;-3.60;99.90
2453;DHT22;63678;47.994;7.854;2024-01-11T05:41:24;-3.70;99.90
2453;DHT22;63678;47.994;7.854;2024-01-11T05:43:57;-3.80;99.90
2453;DHT22;63678;47.994;7.854;2024-01-11T05:46:31;-3.80;99.90
2453;DHT22;63678;47.994;7.854;2024-01-11T05:49:05;-3.80;99.90
2453;DHT22;63678;47.994;7.854;2024-01-11T05:51:37;-3.80;99.90
2453;DHT22;63678;47.994;7.854;2024-01-11T05:54:10;-3.70;99.90
2453;DHT22;63678;47.994;7.854;2024-01-11T05:56:43;-3.70;99.90
2453;DHT22;63678;47.994;7.854;2024-01-11T05:59:15;-3.60;99.90
2453;DHT22;63678;47.994;7.854;2024-01-11T06:01:47;-3.70;99.90
2453;DHT22;63678;47.994;7.854;2024-01-11T06:09:26;-3.60;99.90
2453;DHT22;63678;47.994;7.854;2024-01-11T06:11:58;-3.70;99.90
2453;DHT22;63678;47.994;7.854;2024-01-11T06:14:31;-3.70;99.90
2453;DHT22;63678;47.994;7.854;2024-01-11T06:17:04;-3.50;99.90
2453;DHT22;63678;47.994;7.854;2024-01-11T06:19:37;-3.20;99.90
2453;DHT22;63678;47.994;7.854;2024-01-11T06:22:10;-3.20;99.90
2453;DHT22;63678;47.994;7.854;2024-01-11T06:24:43;-3.70;99.90
2453;DHT22;63678;47.994;7.854;2024-01-11T06:27:15;-3.80;99.90
2453;DHT22;63678;47.994;7.854;2024-01-11T06:29:49;-3.70;99.90
2453;DHT22;63678;47.994;7.854;2024-01-11T06:32:22;-3.60;99.90
2453;DHT22;63678;47.994;7.854;2024-01-11T06:34:54;-3.60;99.90
2453;DHT22;63678;47.994;7.854;2024-01-11T06:37:27;-3.60;99.90
2453;DHT22;63678;47.994;7.854;2024-01-11T06:40:00;-3.60;99.90
2453;DHT22;63678;47.994;7.854;2024-01-11T06:42:33;-3.50;99.90
2453;DHT22;63678;47.994;7.854;2024-01-11T06:45:06;-3.50;99.90
2453;DHT22;63678;47.994;7.854;2024-01-11T06:47:40;-3.60;99.90
2453;DHT22;63678;47.994;7.854;2024-01-11T06:50:13;-3.70;99.90
2453;DHT22;63678;47.994;7.854;2024-01-11T06:52:46;-3.70;99.90
2453;DHT22;63678;47.994;7.854;2024-01-11T06:55:19;-3.60;99.90
2453;DHT22;63678;47.994;7.854;2024-01-11T06:57:51;-3.50;99.90
2453;DHT22;63678;47.994;7.854;2024-01-11T07:00:24;-3.40;99.90
2453;DHT22;63678;47.994;7.854;2024-01-11T07:02:58;-3.40;99.90
2453;DHT22;63678;47.994;7.854;2024-01-11T07:05:31;-3.50;99.90
2453;DHT22;63678;47.994;7.854;2024-01-11T07:08:04;-3.40;99.90
2453;DHT22;63678;47.994;7.854;2024-01-11T07:10:37;-3.50;99.90
2453;DHT22;63678;47.994;7.854;2024-01-11T07:13:09;-3.30;99.90
2453;DHT22;63678;47.994;7.854;2024-01-11T07:15:43;-3.50;99.90
2453;DHT22;63678;47.994;7.854;2024-01-11T07:18:16;-3.40;99.90
2453;DHT22;63678;47.994;7.854;2024-01-11T07:20:51;-3.50;99.90
2453;DHT22;63678;47.994;7.854;2024-01-11T07:23:26;-3.40;99.90
2453;DHT22;63678;47.994;7.854;2024-01-11T07:25:59;-3.40;99.90
2453;DHT22;63678;47.994;7.854;2024-01-11T07:28:31;-3.30;99.90
2453;DHT22;63678;47.994;7.854;2024-01-11T07:31:04;-3.40;99.90
2453;DHT22;63678;47.994;7.854;2024-01-11T07:33:39;-3.30;99.90
2453;DHT22;63678;47.994;7.854;2024-01-11T07:36:12;-3.30;99.90
2453;DHT22;63678;47.994;7.854;2024-01-11T07:38:46;-3.40;99.90
2453;DHT22;63678;47.994;7.854;2024-01-11T07:41:18;-3.30;99.90
2453;DHT22;63678;47.994;7.854;2024-01-11T07:43:51;-3.20;99.90
2453;DHT22;63678;47.994;7.854;2024-01-11T07:46:25;-3.10;99.90
2453;DHT22;63678;47.994;7.854;2024-01-11T07:49:12;-3.10;99.90
2453;DHT22;63678;47.994;7.854;2024-01-11T07:52:06;-3.10;99.90
2453;DHT22;63678;47.994;7.854;2024-01-11T07:54:38;-3.20;99.90
2453;DHT22;63678;47.994;7.854;2024-01-11T07:59:46;-3.10;99.90
2453;DHT22;63678;47.994;7.854;2024-01-11T08:02:20;-3.10;99.90
2453;DHT22;63678;47.994;7.854;2024-01-11T08:04:53;-3.10;99.90
2453;DHT22;63678;47.994;7.854;2024-01-11T08:07:27;-3.10;99.90
2453;DHT22;63678;47.994;7.854;2024-01-11T08:10:00;-3.10;99.90
2453;DHT22;63678;47.994;7.854;2024-01-11T08:12:33;-2.90;99.90
2453;DHT22;63678;47.994;7.854;2024-01-11T08:15:06;-3.00;99.90
2453;DHT22;63678;47.994;7.854;2024-01-11T08:17:47;-2.90;99.90
2453;DHT22;63678;47.994;7.854;2024-01-11T08:20:20;-3.00;99.90
2453;DHT22;63678;47.994;7.854;2024-01-11T08:22:52;-3.00;99.90
2453;DHT22;63678;47.994;7.854;2024-01-11T08:25:25;-3.00;99.90
2453;DHT22;63678;47.994;7.854;2024-01-11T08:27:57;-3.00;99.90
2453;DHT22;63678;47.994;7.854;2024-01-11T08:30:29;-2.60;99.90
2453;DHT22;63678;47.994;7.854;2024-01-11T08:33:03;-2.60;99.90
2453;DHT22;63678;47.994;7.854;2024-01-11T08:36:02;-2.50;99.90
2453;DHT22;63678;47.994;7.854;2024-01-11T08:38:44;-2.30;99.90
2453;DHT22;63678;47.994;7.854;2024-01-11T08:41:36;-2.50;99.90
2453;DHT22;63678;47.994;7.854;2024-01-11T08:45:01;-2.30;99.90
2453;DHT22;63678;47.994;7.854;2024-01-11T08:47:39;-2.30;99.90
2453;DHT22;63678;47.994;7.854;2024-01-11T08:50:14;-2.30;99.90
2453;DHT22;63678;47.994;7.854;2024-01-11T08:52:50;-2.40;99.90
2453;DHT22;63678;47.994;7.854;2024-01-11T08:55:24;-2.40;99.90
2453;DHT22;63678;47.994;7.854;2024-01-11T08:57:59;-2.30;99.90
2453;DHT22;63678;47.994;7.854;2024-01-11T09:00:32;-1.90;99.90
2453;DHT22;63678;47.994;7.854;2024-01-11T09:03:28;-1.80;99.90
2453;DHT22;63678;47.994;7.854;2024-01-11T09:06:02;-1.80;99.90
2453;DHT22;63678;47.994;7.854;2024-01-11T09:08:37;-1.60;99.90
2453;DHT22;63678;47.994;7.854;2024-01-11T09:11:09;-1.40;99.90
2453;DHT22;63678;47.994;7.854;2024-01-11T09:13:42;-1.50;99.90
2453;DHT22;63678;47.994;7.854;2024-01-11T09:16:16;-1.40;99.90
2453;DHT22;63678;47.994;7.854;2024-01-11T09:18:49;-1.50;99.90
2453;DHT22;63678;47.994;7.854;2024-01-11T09:21:22;-1.50;99.90
2453;DHT22;63678;47.994;7.854;2024-01-11T09:23:55;-1.20;99.90
2453;DHT22;63678;47.994;7.854;2024-01-11T09:26:27;-0.90;99.90
2453;DHT22;63678;47.994;7.854;2024-01-11T09:29:00;-0.60;99.90
2453;DHT22;63678;47.994;7.854;2024-01-11T09:31:33;-0.80;99.90
2453;DHT22;63678;47.994;7.854;2024-01-11T09:34:08;-0.80;99.90
2453;DHT22;63678;47.994;7.854;2024-01-11T09:36:53;-1.30;99.90
2453;DHT22;63678;47.994;7.854;2024-01-11T09:39:30;-1.00;99.90
2453;DHT22;63678;47.994;7.854;2024-01-11T09:42:09;0.30;99.90
2453;DHT22;63678;47.994;7.854;2024-01-11T09:44:43;-0.60;99.90
2453;DHT22;63678;47.994;7.854;2024-01-11T09:47:19;-0.50;99.90
2453;DHT22;63678;47.994;7.854;2024-01-11T09:49:55;-0.50;99.90
2453;DHT22;63678;47.994;7.854;2024-01-11T09:52:28;-0.90;99.90
2453;DHT22;63678;47.994;7.854;2024-01-11T09:55:05;-0.90;99.90
2453;DHT22;63678;47.994;7.854;2024-01-11T09:57:41;-1.10;99.90
2453;DHT22;63678;47.994;7.854;2024-01-11T10:00:22;-1.10;99.90
2453;DHT22;63678;47.994;7.854;2024-01-11T10:03:17;-1.20;99.90
2453;DHT22;63678;47.994;7.854;2024-01-11T10:05:53;-1.20;99.90
2453;DHT22;63678;47.994;7.854;2024-01-11T10:08:30;-0.60;99.90
2453;DHT22;63678;47.994;7.854;2024-01-11T10:11:05;-0.10;99.90
2453;DHT22;63678;47.994;7.854;2024-01-11T10:13:38;0.10;99.90
2453;DHT22;63678;47.994;7.854;2024-01-11T10:16:12;0.10;99.90
2453;DHT22;63678;47.994;7.854;2024-01-11T10:21:41;-0.30;99.90
2453;DHT22;63678;47.994;7.854;2024-01-11T10:24:19;-0.50;99.90
2453;DHT22;63678;47.994;7.854;2024-01-11T10:26:58;-0.50;99.90
2453;DHT22;63678;47.994;7.854;2024-01-11T10:29:34;-0.80;99.90
2453;DHT22;63678;47.994;7.854;2024-01-11T10:32:09;-0.80;99.90
2453;DHT22;63678;47.994;7.854;2024-01-11T10:34:42;-0.80;99.90
2453;DHT22;63678;47.994;7.854;2024-01-11T10:37:14;-0.80;99.90
2453;DHT22;63678;47.994;7.854;2024-01-11T10:39:48;0.10;99.90
2453;DHT22;63678;47.994;7.854;2024-01-11T10:42:26;0.90;99.90
2453;DHT22;63678;47.994;7.854;2024-01-11T10:45:02;1.30;99.90
2453;DHT22;63678;47.994;7.854;2024-01-11T10:48:02;0.10;99.90
2453;DHT22;63678;47.994;7.854;2024-01-11T10:50:44;0.00;99.90
2453;DHT22;63678;47.994;7.854;2024-01-11T10:56:34;0.70;99.90
2453;DHT22;63678;47.994;7.854;2024-01-11T10:59:08;0.80;99.90
2453;DHT22;63678;47.994;7.854;2024-01-11T11:01:41;0.80;99.90
2453;DHT22;63678;47.994;7.854;2024-01-11T11:04:15;1.00;99.90
2453;DHT22;63678;47.994;7.854;2024-01-11T11:06:57;1.60;99.90
2453;DHT22;63678;47.994;7.854;2024-01-11T11:09:52;1.40;99.90
2453;DHT22;63678;47.994;7.854;2024-01-11T11:12:25;1.90;99.90
2453;DHT22;63678;47.994;7.854;2024-01-11T11:14:59;2.30;99.90
2453;DHT22;63678;47.994;7.854;2024-01-11T11:17:35;1.90;99.90
2453;DHT22;63678;47.994;7.854;2024-01-11T11:20:11;2.50;99.90
2453;DHT22;63678;47.994;7.854;2024-01-11T11:23:06;2.90;99.90
2453;DHT22;63678;47.994;7.854;2024-01-11T11:25:41;3.40;99.90
2453;DHT22;63678;47.994;7.854;2024-01-11T11:28:16;3.40;99.90
2453;DHT22;63678;47.994;7.854;2024-01-11T11:30:52;2.40;99.90
2453;DHT22;63678;47.994;7.854;2024-01-11T11:33:26;2.80;99.90
2453;DHT22;63678;47.994;7.854;2024-01-11T11:35:59;2.60;99.90
2453;DHT22;63678;47.994;7.854;2024-01-11T11:38:32;2.50;99.90
2453;DHT22;63678;47.994;7.854;2024-01-11T11:41:07;2.00;99.90
2453;DHT22;63678;47.994;7.854;2024-01-11T11:43:41;2.10;99.90
2453;DHT22;63678;47.994;7.854;2024-01-11T11:46:14;1.60;99.90
2453;DHT22;63678;47.994;7.854;2024-01-11T11:51:20;1.40;99.90
2453;DHT22;63678;47.994;7.854;2024-01-11T11:53:57;1.80;99.90
2453;DHT22;63678;47.994;7.854;2024-01-11T11:56:30;1.70;99.90
2453;DHT22;63678;47.994;7.854;2024-01-11T11:59:04;1.70;99.90
2453;DHT22;63678;47.994;7.854;2024-01-11T12:01:39;1.40;99.90
2453;DHT22;63678;47.994;7.854;2024-01-11T12:09:24;0.80;99.90
2453;DHT22;63678;47.994;7.854;2024-01-11T12:11:56;0.50;99.90
2453;DHT22;63678;47.994;7.854;2024-01-11T12:14:46;0.60;99.90
2453;DHT22;63678;47.994;7.854;2024-01-11T12:17:19;0.50;99.90
2453;DHT22;63678;47.994;7.854;2024-01-11T12:19:52;0.60;99.90
2453;DHT22;63678;47.994;7.854;2024-01-11T12:22:26;0.70;99.90
2453;DHT22;63678;47.994;7.854;2024-01-11T12:27:33;0.60;99.90
2453;DHT22;63678;47.994;7.854;2024-01-11T12:30:06;1.00;99.90
2453;DHT22;63678;47.994;7.854;2024-01-11T12:32:44;1.00;99.90
2453;DHT22;63678;47.994;7.854;2024-01-11T12:35:18;1.00;99.90
2453;DHT22;63678;47.994;7.854;2024-01-11T12:38:05;0.90;99.90
2453;DHT22;63678;47.994;7.854;2024-01-11T12:40:39;0.80;99.90
2453;DHT22;63678;47.994;7.854;2024-01-11T12:43:13;0.70;99.90
2453;DHT22;63678;47.994;7.854;2024-01-11T12:45:46;0.60;99.90
2453;DHT22;63678;47.994;7.854;2024-01-11T12:48:23;0.70;99.90
2453;DHT22;63678;47.994;7.854;2024-01-11T12:50:56;0.60;99.90
2453;DHT22;63678;47.994;7.854;2024-01-11T12:53:51;0.40;99.90
2453;DHT22;63678;47.994;7.854;2024-01-11T12:59:19;0.50;99.90
2453;DHT22;63678;47.994;7.854;2024-01-11T13:01:52;0.70;99.90
2453;DHT22;63678;47.994;7.854;2024-01-11T13:06:59;0.80;99.90
2453;DHT22;63678;47.994;7.854;2024-01-11T13:09:32;0.70;99.90
2453;DHT22;63678;47.994;7.854;2024-01-11T13:14:39;1.10;99.90
2453;DHT22;63678;47.994;7.854;2024-01-11T13:17:13;0.90;99.90
2453;DHT22;63678;47.994;7.854;2024-01-11T13:22:19;1.10;99.90
2453;DHT22;63678;47.994;7.854;2024-01-11T13:24:52;0.80;99.90
2453;DHT22;63678;47.994;7.854;2024-01-11T13:27:25;1.00;99.90
2453;DHT22;63678;47.994;7.854;2024-01-11T13:29:59;1.40;99.90
2453;DHT22;63678;47.994;7.854;2024-01-11T13:32:31;1.60;99.90
2453;DHT22;63678;47.994;7.854;2024-01-11T13:37:38;1.40;99.90
2453;DHT22;63678;47.994;7.854;2024-01-11T13:40:33;1.20;99.90
2453;DHT22;63678;47.994;7.854;2024-01-11T13:45:41;1.30;99.90
2453;DHT22;63678;47.994;7.854;2024-01-11T13:48:14;1.10;99.90
2453;DHT22;63678;47.994;7.854;2024-01-11T13:50:47;0.90;99.90
2453;DHT22;63678;47.994;7.854;2024-01-11T13:53:20;1.00;99.90
2453;DHT22;63678;47.994;7.854;2024-01-11T13:55:53;1.00;99.90
2453;DHT22;63678;47.994;7.854;2024-01-11T13:58:26;0.90;99.90
2453;DHT22;63678;47.994;7.854;2024-01-11T14:01:00;0.80;99.90
2453;DHT22;63678;47.994;7.854;2024-01-11T14:03:33;0.70;99.90
2453;DHT22;63678;47.994;7.854;2024-01-11T14:06:06;0.50;99.90
2453;DHT22;63678;47.994;7.854;2024-01-11T14:11:13;0.40;99.90
2453;DHT22;63678;47.994;7.854;2024-01-11T14:13:46;0.30;99.90
2453;DHT22;63678;47.994;7.854;2024-01-11T14:19:14;0.40;99.90
2453;DHT22;63678;47.994;7.854;2024-01-11T14:21:48;0.40;99.90
2453;DHT22;63678;47.994;7.854;2024-01-11T14:27:08;0.50;99.90
2453;DHT22;63678;47.994;7.854;2024-01-11T14:29:41;0.50;99.90
2453;DHT22;63678;47.994;7.854;2024-01-11T14:32:15;0.70;99.90
2453;DHT22;63678;47.994;7.854;2024-01-11T14:35:05;0.70;99.90
2453;DHT22;63678;47.994;7.854;2024-01-11T14:40:12;0.90;99.90
2453;DHT22;63678;47.994;7.854;2024-01-11T14:42:48;0.90;99.90
2453;DHT22;63678;47.994;7.854;2024-01-11T14:45:20;0.80;99.90
2453;DHT22;63678;47.994;7.854;2024-01-11T14:53:02;0.40;99.90
2453;DHT22;63678;47.994;7.854;2024-01-11T14:55:36;0.40;99.90
2453;DHT22;63678;47.994;7.854;2024-01-11T15:00:44;0.00;99.90
2453;DHT22;63678;47.994;7.854;2024-01-11T15:03:16;0.10;99.90
2453;DHT22;63678;47.994;7.854;2024-01-11T15:05:54;0.00;99.90
2453;DHT22;63678;47.994;7.854;2024-01-11T15:08:27;0.10;99.90
2453;DHT22;63678;47.994;7.854;2024-01-11T15:16:06;0.10;99.90
2453;DHT22;63678;47.994;7.854;2024-01-11T15:18:40;0.20;99.90
2453;DHT22;63678;47.994;7.854;2024-01-11T15:21:12;0.00;99.90
2453;DHT22;63678;47.994;7.854;2024-01-11T15:23:44;0.00;99.90
2453;DHT22;63678;47.994;7.854;2024-01-11T15:26:20;-0.10;99.90
2453;DHT22;63678;47.994;7.854;2024-01-11T15:28:53;-0.10;99.90
2453;DHT22;63678;47.994;7.854;2024-01-11T15:31:26;0.00;99.90
2453;DHT22;63678;47.994;7.854;2024-01-11T15:33:59;0.00;99.90
2453;DHT22;63678;47.994;7.854;2024-01-11T15:36:34;0.00;99.90
2453;DHT22;63678;47.994;7.854;2024-01-11T15:39:07;0.10;99.90
2453;DHT22;63678;47.994;7.854;2024-01-11T15:52:14;-0.60;99.90
2453;DHT22;63678;47.994;7.854;2024-01-11T15:54:49;-0.70;99.90
2453;DHT22;63678;47.994;7.854;2024-01-11T15:59:56;-0.70;99.90
2453;DHT22;63678;47.994;7.854;2024-01-11T16:05:01;-0.80;99.90
2453;DHT22;63678;47.994;7.854;2024-01-11T16:07:34;-0.90;99.90
2453;DHT22;63678;47.994;7.854;2024-01-11T16:10:07;-0.90;99.90
2453;DHT22;63678;47.994;7.854;2024-01-11T16:12:42;-0.90;99.90
2453;DHT22;63678;47.994;7.854;2024-01-11T16:17:48;-0.90;99.90
2453;DHT22;63678;47.994;7.854;2024-01-11T16:23:18;-0.90;99.90
2453;DHT22;63678;47.994;7.854;2024-01-11T16:25:51;-0.60;99.90
2453;DHT22;63678;47.994;7.854;2024-01-11T16:28:25;-0.60;99.90
2453;DHT22;63678;47.994;7.854;2024-01-11T16:33:32;-0.70;99.90
2453;DHT22;63678;47.994;7.854;2024-01-11T16:36:05;-0.70;99.90
2453;DHT22;63678;47.994;7.854;2024-01-11T16:38:38;-0.80;99.90
2453;DHT22;63678;47.994;7.854;2024-01-11T16:43:44;-0.70;99.90
2453;DHT22;63678;47.994;7.854;2024-01-11T16:46:20;-0.70;99.90
2453;DHT22;63678;47.994;7.854;2024-01-11T16:48:55;-0.70;99.90
2453;DHT22;63678;47.994;7.854;2024-01-11T16:51:30;-0.60;99.90
2453;DHT22;63678;47.994;7.854;2024-01-11T16:54:03;-0.60;99.90
2453;DHT22;63678;47.994;7.854;2024-01-11T16:56:36;-0.70;99.90
2453;DHT22;63678;47.994;7.854;2024-01-11T17:06:49;-1.00;99.90
2453;DHT22;63678;47.994;7.854;2024-01-11T17:14:29;-0.80;99.90
2453;DHT22;63678;47.994;7.854;2024-01-11T17:17:02;-0.90;99.90
2453;DHT22;63678;47.994;7.854;2024-01-11T17:19:38;-1.00;99.90
2453;DHT22;63678;47.994;7.854;2024-01-11T17:22:10;-0.90;99.90
2453;DHT22;63678;47.994;7.854;2024-01-11T17:24:43;-0.90;99.90
2453;DHT22;63678;47.994;7.854;2024-01-11T17:27:18;-0.90;99.90
2453;DHT22;63678;47.994;7.854;2024-01-11T17:29:51;-1.00;99.90
2453;DHT22;63678;47.994;7.854;2024-01-11T17:32:23;-1.00;99.90
2453;DHT22;63678;47.994;7.854;2024-01-11T17:34:56;-1.10;99.90
2453;DHT22;63678;47.994;7.854;2024-01-11T17:37:29;-1.10;99.90
2453;DHT22;63678;47.994;7.854;2024-01-11T17:40:02;-1.20;99.90
2453;DHT22;63678;47.994;7.854;2024-01-11T17:47:42;-1.10;99.90
2453;DHT22;63678;47.994;7.854;2024-01-11T17:50:15;-1.10;99.90
2453;DHT22;63678;47.994;7.854;2024-01-11T17:52:48;-1.00;99.90
2453;DHT22;63678;47.994;7.854;2024-01-11T17:57:56;-0.90;99.90
2453;DHT22;63678;47.994;7.854;2024-01-11T18:03:05;-1.00;99.90
2453;DHT22;63678;47.994;7.854;2024-01-11T18:05:59;-1.00;99.90
2453;DHT22;63678;47.994;7.854;2024-01-11T18:08:32;-1.10;99.90
2453;DHT22;63678;47.994;7.854;2024-01-11T18:11:04;-1.20;99.90
2453;DHT22;63678;47.994;7.854;2024-01-11T18:13:37;-1.20;99.90
2453;DHT22;63678;47.994;7.854;2024-01-11T18:16:10;-1.20;99.90
2453;DHT22;63678;47.994;7.854;2024-01-11T18:18:43;-1.30;99.90
2453;DHT22;63678;47.994;7.854;2024-01-11T18:21:19;-1.20;99.90
2453;DHT22;63678;47.994;7.854;2024-01-11T18:23:51;-1.30;99.90
2453;DHT22;63678;47.994;7.854;2024-01-11T18:26:24;-1.60;99.90
2453;DHT22;63678;47.994;7.854;2024-01-11T18:31:31;-1.70;99.90
2453;DHT22;63678;47.994;7.854;2024-01-11T18:34:05;-1.70;99.90
2453;DHT22;63678;47.994;7.854;2024-01-11T18:36:45;-1.80;99.90
2453;DHT22;63678;47.994;7.854;2024-01-11T18:41:51;-1.80;99.90
2453;DHT22;63678;47.994;7.854;2024-01-11T18:44:24;-1.80;99.90
2453;DHT22;63678;47.994;7.854;2024-01-11T18:46:58;-1.90;99.90
2453;DHT22;63678;47.994;7.854;2024-01-11T18:49:30;-1.90;99.90